Time;durP1;ratioP1;P1;durP2;ratioP2;P2;SDS_P1;SDS_P2;PMS_P1;PMS_P2;Temp;Humidity;BMP_temperature;BMP_pressure;BME280_temperature;BME280_humidity;BME280_pressure;Samples;Min_cycle;Max_cycle;Signal;HPM_P1;HPM_P2
2021/12/30 00:02:58;;;;;;;;;;;;;;;21.68;38.59;95316.41;10399990;28;1838;-48
2021/12/30 00:07:58;;;;;;;;;;;;;;;21.70;38.42;95320.34;10394795;28;2045;-52
2021/12/30 00:12:59;;;;;;;;;;;;;;;21.68;38.21;95338.31;10405409;28;1803;-52
2021/12/30 00:18:00;;;;;;;;;;;;;;;21.69;38.77;95355.72;10405901;28;2036;-49
2021/12/30 00:23:06;;;;;;;;;;;;;;;21.71;38.56;95363.34;10404661;28;1835;-50
2021/12/30 00:28:07;;;;;;;;;;;;;;;21.71;38.40;95371.25;10403093;28;1918;-50
2021/12/30 00:33:08;;;;;;;;;;;;;;;21.73;38.86;95388.38;10407350;28;1826;-52
2021/12/30 00:38:08;;;;;;;;;;;;;;;21.70;38.65;95386.28;10404515;28;1845;-49
2021/12/30 00:43:09;;;;;;;;;;;;;;;21.74;38.51;95389.16;10405605;28;1804;-51
2021/12/30 00:48:10;;;;;;;;;;;;;;;21.71;38.61;95393.16;10402172;28;1898;-50
2021/12/30 00:53:11;;;;;;;;;;;;;;;21.70;38.59;95396.84;10404383;28;1768;-50
2021/12/30 00:58:12;;;;;;;;;;;;;;;21.71;38.50;95402.91;10404618;28;1805;-50
2021/12/30 01:03:12;;;;;;;;;;;;;;;21.73;38.78;95406.81;10405340;28;1846;-49
2021/12/30 01:08:13;;;;;;;;;;;;;;;21.72;38.19;95422.94;10401798;28;1965;-49
2021/12/30 01:13:23;;;;;;;;;;;;;;;21.72;38.79;95425.59;10405034;28;1841;-49
2021/12/30 01:23:29;;;;;;;;;;;;;;;21.68;38.85;95451.75;10403052;28;1979;-53
2021/12/30 01:28:30;;;;;;;;;;;;;;;21.74;38.58;95473.56;10395139;28;1961;-47
2021/12/30 01:33:31;;;;;;;;;;;;;;;21.72;38.75;95467.81;10402455;28;1858;-50
2021/12/30 01:38:31;;;;;;;;;;;;;;;21.74;38.49;95481.50;10401239;28;1928;-51
2021/12/30 01:43:34;;;;;;;;;;;;;;;21.70;38.83;95481.25;10401659;28;1768;-47
2021/12/30 01:48:35;;;;;;;;;;;;;;;21.71;38.85;95474.13;10403114;28;1910;-49
2021/12/30 01:53:36;;;;;;;;;;;;;;;21.70;38.44;95483.91;10398789;28;1838;-47
2021/12/30 01:58:37;;;;;;;;;;;;;;;21.71;38.63;95484.69;10399584;28;2046;-47
2021/12/30 02:03:37;;;;;;;;;;;;;;;21.72;38.57;95499.47;10402015;28;1848;-49
2021/12/30 02:08:38;;;;;;;;;;;;;;;21.70;38.72;95509.50;10427756;22;2156;-63
2021/12/30 02:13:39;;;;;;;;;;;;;;;21.73;39.04;95524.75;10438890;28;1958;-63
2021/12/30 02:18:40;;;;;;;;;;;;;;;21.73;38.47;95530.81;10433060;28;1814;-64
2021/12/30 02:23:40;;;;;;;;;;;;;;;21.72;38.28;95523.19;10439211;28;1904;-63
2021/12/30 02:28:41;;;;;;;;;;;;;;;21.69;38.89;95535.09;10437093;28;1996;-64
2021/12/30 02:33:42;;;;;;;;;;;;;;;21.71;38.65;95530.31;10435368;28;1743;-64
2021/12/30 02:38:45;;;;;;;;;;;;;;;21.69;38.87;95529.81;10435978;28;1897;-63
2021/12/30 02:43:47;;;;;;;;;;;;;;;21.67;38.67;95529.31;10439089;28;1826;-64
2021/12/30 02:48:52;;;;;;;;;;;;;;;21.69;38.87;95550.13;10421200;28;2110;-64
2021/12/30 02:53:53;;;;;;;;;;;;;;;21.71;38.75;95558.56;10436872;28;1831;-64
2021/12/30 02:58:53;;;;;;;;;;;;;;;21.72;38.69;95565.41;10439511;28;1794;-64
2021/12/30 03:03:54;;;;;;;;;;;;;;;21.69;38.92;95584.44;10436237;28;1859;-63
2021/12/30 03:08:55;;;;;;;;;;;;;;;21.70;38.70;95586.00;10440618;28;1923;-63
2021/12/30 03:13:56;;;;;;;;;;;;;;;21.70;38.85;95596.56;10436351;28;1808;-63
2021/12/30 03:19:00;;;;;;;;;;;;;;;21.77;38.68;95610.19;10440001;28;1811;-63
2021/12/30 03:24:02;;;;;;;;;;;;;;;21.70;38.36;95618.44;10436347;28;1782;-63
2021/12/30 03:29:07;;;;;;;;;;;;;;;21.70;38.77;95644.81;10439214;28;1954;-63
2021/12/30 03:34:09;;;;;;;;;;;;;;;21.71;38.69;95642.97;10437433;28;1812;-64
2021/12/30 03:39:09;;;;;;;;;;;;;;;21.69;38.74;95650.38;10440153;28;1981;-63
2021/12/30 03:44:10;;;;;;;;;;;;;;;21.68;38.56;95654.06;10434917;28;1855;-63
2021/12/30 03:49:10;;;;;;;;;;;;;;;21.69;38.81;95658.31;10439791;28;1919;-64
2021/12/30 03:54:11;;;;;;;;;;;;;;;21.68;38.70;95654.06;10435702;28;1820;-64
2021/12/30 03:59:11;;;;;;;;;;;;;;;21.69;38.75;95663.56;10429183;28;2002;-63
2021/12/30 04:04:12;;;;;;;;;;;;;;;21.68;38.54;95680.47;10439380;28;2006;-64
2021/12/30 04:09:12;;;;;;;;;;;;;;;21.69;38.69;95688.13;10433963;28;1967;-64
2021/12/30 04:14:12;;;;;;;;;;;;;;;21.72;38.52;95697.31;10417932;28;2312;-63
2021/12/30 04:19:13;;;;;;;;;;;;;;;21.70;38.49;95708.13;10431942;28;2368;-64
2021/12/30 04:24:13;;;;;;;;;;;;;;;21.69;38.48;95732.97;10435651;28;2375;-64
2021/12/30 04:29:14;;;;;;;;;;;;;;;21.71;38.58;95733.47;10438105;28;2276;-64
2021/12/30 04:34:15;;;;;;;;;;;;;;;21.73;38.46;95741.09;10439423;28;2120;-63
2021/12/30 04:39:16;;;;;;;;;;;;;;;21.71;38.64;95749.28;10439838;28;1876;-64
2021/12/30 04:44:16;;;;;;;;;;;;;;;21.71;38.47;95748.50;10439170;28;1941;-64
2021/12/30 04:49:17;;;;;;;;;;;;;;;21.72;38.38;95761.41;10437622;28;1989;-64
2021/12/30 04:54:17;;;;;;;;;;;;;;;21.72;38.83;95779.09;10435135;28;1963;-63
2021/12/30 04:59:18;;;;;;;;;;;;;;;21.71;38.59;95788.06;10444248;28;2175;-63
2021/12/30 05:04:18;;;;;;;;;;;;;;;21.71;38.54;95796.78;10442461;28;1861;-63
2021/12/30 05:09:18;;;;;;;;;;;;;;;21.71;38.37;95802.06;10445475;28;2233;-63
2021/12/30 05:14:19;;;;;;;;;;;;;;;21.72;38.46;95814.16;10445090;28;1852;-63
2021/12/30 05:19:19;;;;;;;;;;;;;;;21.70;38.53;95823.44;10441602;28;1863;-63
2021/12/30 05:24:20;;;;;;;;;;;;;;;21.73;38.36;95817.59;10431336;28;1887;-63
2021/12/30 05:29:20;;;;;;;;;;;;;;;21.72;38.65;95823.97;10435877;28;2194;-63
2021/12/30 05:34:20;;;;;;;;;;;;;;;21.74;38.49;95840.31;10440727;28;1852;-64
2021/12/30 05:39:21;;;;;;;;;;;;;;;21.70;38.74;95839.28;10444991;28;1923;-64
2021/12/30 05:44:21;;;;;;;;;;;;;;;21.70;38.67;95837.41;10444359;28;1856;-64
2021/12/30 05:49:22;;;;;;;;;;;;;;;21.69;38.64;95846.41;10442948;28;1910;-64
2021/12/30 05:54:22;;;;;;;;;;;;;;;21.73;38.47;95851.91;10439660;28;1980;-64
2021/12/30 05:59:23;;;;;;;;;;;;;;;21.72;38.61;95845.06;10442759;28;1888;-64
2021/12/30 06:04:23;;;;;;;;;;;;;;;21.72;38.37;95855.63;10442122;28;1908;-64
2021/12/30 06:09:25;;;;;;;;;;;;;;;21.71;38.36;95875.94;10437319;28;2023;-64
2021/12/30 06:14:26;;;;;;;;;;;;;;;21.70;38.67;95873.59;10440296;28;2171;-64
2021/12/30 06:19:26;;;;;;;;;;;;;;;21.74;38.56;95885.16;10441538;28;1957;-64
2021/12/30 06:24:27;;;;;;;;;;;;;;;21.74;38.26;95885.16;10419826;28;1918;-64
2021/12/30 06:29:27;;;;;;;;;;;;;;;21.74;38.12;95895.72;10444548;28;1928;-64
2021/12/30 06:34:27;;;;;;;;;;;;;;;21.70;38.74;95899.97;10435113;28;1915;-64
2021/12/30 06:39:28;;;;;;;;;;;;;;;21.71;38.40;95891.75;10441611;28;1995;-64
2021/12/30 06:44:28;;;;;;;;;;;;;;;21.71;38.54;95909.44;10442332;28;1906;-65
2021/12/30 06:49:35;;;;;;;;;;;;;;;21.75;38.10;95905.97;10439342;28;1991;-64
2021/12/30 06:54:36;;;;;;;;;;;;;;;21.76;38.28;95919.97;10439963;28;2057;-64
2021/12/30 06:59:36;;;;;;;;;;;;;;;21.70;38.30;95915.78;10441456;28;1872;-64
2021/12/30 07:04:38;;;;;;;;;;;;;;;21.73;38.49;95918.66;10434911;28;1920;-64
2021/12/30 07:09:38;;;;;;;;;;;;;;;21.72;38.34;95918.94;10441332;28;1955;-64
2021/12/30 07:14:39;;;;;;;;;;;;;;;21.72;38.27;95924.22;10439403;28;1844;-65
2021/12/30 07:19:39;;;;;;;;;;;;;;;21.74;38.36;95925.50;10433000;28;1933;-65
2021/12/30 07:24:39;;;;;;;;;;;;;;;21.72;38.04;95934.78;10438473;28;1969;-65
2021/12/30 07:29:40;;;;;;;;;;;;;;;21.74;38.17;95933.41;10437245;28;2386;-66
2021/12/30 07:34:40;;;;;;;;;;;;;;;21.71;38.33;95930.53;10438278;28;1897;-64
2021/12/30 07:39:41;;;;;;;;;;;;;;;21.74;38.03;95943.97;10436540;28;1941;-65
2021/12/30 07:44:42;;;;;;;;;;;;;;;21.72;38.24;95950.59;10439196;28;1910;-65
2021/12/30 07:49:42;;;;;;;;;;;;;;;21.74;38.05;95946.59;10438780;28;1832;-66
2021/12/30 07:54:44;;;;;;;;;;;;;;;21.71;38.38;95949.81;10437003;28;1889;-66
2021/12/30 07:59:44;;;;;;;;;;;;;;;21.76;37.95;95956.91;10441547;28;1909;-66
2021/12/30 08:04:44;;;;;;;;;;;;;;;21.72;38.06;95955.88;10440221;28;1920;-66
2021/12/30 08:09:45;;;;;;;;;;;;;;;21.71;38.02;95956.94;10429810;28;2022;-66
2021/12/30 08:14:45;;;;;;;;;;;;;;;21.73;38.11;95952.97;10458633;22;2256;-47
2021/12/30 08:19:47;;;;;;;;;;;;;;;21.71;38.22;95938.47;10436905;28;2023;-48
2021/12/30 08:24:48;;;;;;;;;;;;;;;21.77;38.11;95950.53;10437889;28;1977;-50
2021/12/30 08:29:48;;;;;;;;;;;;;;;21.75;38.02;95942.91;10446762;28;1880;-47
2021/12/30 08:34:49;;;;;;;;;;;;;;;21.72;38.08;95954.00;10447034;28;1767;-49
2021/12/30 08:39:49;;;;;;;;;;;;;;;21.75;37.98;95947.41;10448432;28;1937;-55
2021/12/30 08:44:50;;;;;;;;;;;;;;;21.73;38.18;95955.59;10439280;28;1973;-51
2021/12/30 08:49:51;;;;;;;;;;;;;;;21.74;38.36;95965.06;10447112;28;1798;-52
2021/12/30 08:54:52;;;;;;;;;;;;;;;21.73;38.35;95976.69;10443187;28;1860;-50
2021/12/30 08:59:52;;;;;;;;;;;;;;;21.73;38.48;95984.63;10448115;28;1972;-47
2021/12/30 09:04:53;;;;;;;;;;;;;;;21.75;38.33;95982.50;10446051;28;1977;-48
2021/12/30 09:09:54;;;;;;;;;;;;;;;21.73;38.25;95991.75;10444528;28;2143;-47
2021/12/30 09:14:54;;;;;;;;;;;;;;;21.79;38.72;95985.38;10440292;28;2398;-43
2021/12/30 09:19:55;;;;;;;;;;;;;;;21.83;38.83;95989.06;10426866;28;1900;-45
2021/12/30 09:24:55;;;;;;;;;;;;;;;21.85;38.87;95995.63;10439147;28;1983;-45
2021/12/30 09:29:56;;;;;;;;;;;;;;;21.86;39.34;95993.78;10443457;28;1860;-47
2021/12/30 09:34:56;;;;;;;;;;;;;;;21.91;39.30;96001.66;10440665;28;1903;-51
2021/12/30 09:39:59;;;;;;;;;;;;;;;21.92;39.07;96002.44;10443617;28;1888;-48
2021/12/30 09:45:00;;;;;;;;;;;;;;;21.88;39.57;96001.44;10443307;28;2035;-47
2021/12/30 09:50:01;;;;;;;;;;;;;;;21.90;39.46;95988.75;10441577;28;1992;-46
2021/12/30 09:55:01;;;;;;;;;;;;;;;21.92;39.59;95997.19;10443074;28;2105;-53
2021/12/30 10:00:04;;;;;;;;;;;;;;;21.92;39.52;95984.78;10443596;28;2020;-49
2021/12/30 10:05:05;;;;;;;;;;;;;;;21.91;39.61;95980.53;10442262;28;1973;-52
2021/12/30 10:10:26;;;;;;;;;;;;;;;21.91;39.46;95975.28;10443836;28;1785;-53
2021/12/30 10:15:29;;;;;;;;;;;;;;;21.95;39.34;95973.66;10440588;28;1828;-48
2021/12/30 10:20:30;;;;;;;;;;;;;;;21.95;39.70;95978.16;10442252;28;1868;-48
2021/12/30 10:25:32;;;;;;;;;;;;;;;21.95;39.52;95975.53;10433488;28;1993;-48
2021/12/30 10:30:33;;;;;;;;;;;;;;;21.96;39.45;95977.88;10443763;28;1904;-47
2021/12/30 10:35:35;;;;;;;;;;;;;;;21.97;39.29;95965.47;10439182;28;1825;-51
2021/12/30 10:40:36;;;;;;;;;;;;;;;21.93;39.13;95954.66;10440025;28;1987;-45
2021/12/30 10:45:36;;;;;;;;;;;;;;;21.93;38.97;95959.94;10440529;28;1910;-46
2021/12/30 10:50:37;;;;;;;;;;;;;;;21.94;39.31;95953.63;10432147;28;1888;-46
2021/12/30 10:55:38;;;;;;;;;;;;;;;22.02;39.16;95958.28;10439065;28;1837;-48
2021/12/30 11:00:38;;;;;;;;;;;;;;;21.98;39.48;95970.47;10442368;28;1801;-47
2021/12/30 11:05:39;;;;;;;;;;;;;;;21.95;39.58;95963.09;10439842;28;1989;-47
2021/12/30 11:10:39;;;;;;;;;;;;;;;21.98;39.41;95977.59;10441303;28;1845;-46
2021/12/30 11:15:40;;;;;;;;;;;;;;;21.96;39.71;95977.88;10435189;28;1856;-46
2021/12/30 11:20:42;;;;;;;;;;;;;;;21.99;39.38;96003.69;10439001;28;1815;-48
2021/12/30 11:25:43;;;;;;;;;;;;;;;21.98;39.49;95983.66;10440047;28;1921;-47
2021/12/30 11:30:44;;;;;;;;;;;;;;;21.92;39.50;95987.41;10438397;28;1887;-46
2021/12/30 11:35:44;;;;;;;;;;;;;;;21.93;39.53;95993.50;10439260;28;1826;-45
2021/12/30 11:40:45;;;;;;;;;;;;;;;21.91;39.69;95995.63;10439244;28;1916;-50
2021/12/30 11:45:46;;;;;;;;;;;;;;;21.94;39.58;95990.56;10437115;28;1980;-47
2021/12/30 11:50:46;;;;;;;;;;;;;;;21.74;40.90;95988.06;10441559;28;1864;-44
2021/12/30 11:55:48;;;;;;;;;;;;;;;20.74;43.73;95992.75;10437052;28;1951;-45
2021/12/30 12:00:50;;;;;;;;;;;;;;;20.03;45.59;96001.78;10440846;28;2070;-47
2021/12/30 12:05:50;;;;;;;;;;;;;;;19.61;46.96;95998.59;10445522;28;1906;-58
2021/12/30 12:11:10;;;;;;;;;;;;;;;19.33;47.70;95997.22;10446847;28;1853;-48
2021/12/30 12:16:13;;;;;;;;;;;;;;;19.26;47.93;95994.03;10446952;28;1778;-46
2021/12/30 12:21:13;;;;;;;;;;;;;;;19.34;47.72;95996.19;10442468;28;2214;-50
2021/12/30 12:26:15;;;;;;;;;;;;;;;19.66;46.94;96003.88;10446224;28;1918;-47
2021/12/30 12:31:15;;;;;;;;;;;;;;;19.81;46.57;95995.97;10446661;28;1848;-47
2021/12/30 12:36:16;;;;;;;;;;;;;;;20.03;46.10;96004.44;10447787;28;1931;-45
2021/12/30 12:41:24;;;;;;;;;;;;;;;20.09;45.72;96001.50;10442216;28;1823;-49
2021/12/30 12:46:41;;;;;;;;;;;;;;;20.09;45.77;95984.94;10440452;28;1922;-50
2021/12/30 12:51:52;;;;;;;;;;;;;;;20.05;45.82;95999.69;10444003;28;1896;-49
2021/12/30 12:56:53;;;;;;;;;;;;;;;20.05;45.92;96005.72;10441812;28;1912;-50
2021/12/30 13:01:54;;;;;;;;;;;;;;;20.15;45.33;96004.94;10440841;28;1861;-46
2021/12/30 13:06:54;;;;;;;;;;;;;;;20.47;44.13;96018.63;10434643;28;1977;-46
2021/12/30 13:11:55;;;;;;;;;;;;;;;20.63;43.46;96017.53;10442644;28;1857;-48
2021/12/30 13:16:57;;;;;;;;;;;;;;;20.72;43.40;96021.19;10441416;28;1900;-48
2021/12/30 13:22:01;;;;;;;;;;;;;;;20.74;42.82;96029.63;10441880;28;1825;-47
2021/12/30 13:27:05;;;;;;;;;;;;;;;20.79;42.76;96028.81;10440714;28;1952;-45
2021/12/30 13:32:32;;;;;;;;;;;;;;;20.79;42.67;96020.94;10445811;28;1873;-46
2021/12/30 13:37:40;;;;;;;;;;;;;;;20.79;42.28;96026.97;10438234;28;1844;-48
2021/12/30 13:42:48;;;;;;;;;;;;;;;20.78;42.37;96035.13;10442147;28;2210;-47
2021/12/30 13:47:49;;;;;;;;;;;;;;;20.73;42.48;96030.66;10442723;28;1914;-47
2021/12/30 13:52:49;;;;;;;;;;;;;;;20.78;42.45;96020.13;10440659;28;1913;-50
2021/12/30 13:57:57;;;;;;;;;;;;;;;20.83;42.85;96020.13;10443761;28;1844;-47
2021/12/30 14:02:59;;;;;;;;;;;;;;;20.81;42.75;96029.34;10436666;28;1817;-51
2021/12/30 14:08:07;;;;;;;;;;;;;;;20.85;42.84;96023.28;10441232;28;1906;-50
2021/12/30 14:13:07;;;;;;;;;;;;;;;20.85;42.85;96019.84;10440179;28;1876;-49
2021/12/30 14:18:09;;;;;;;;;;;;;;;20.91;42.59;96035.38;10440573;28;1951;-47
2021/12/30 14:23:09;;;;;;;;;;;;;;;20.96;42.28;96035.34;10437140;28;1765;-49
2021/12/30 14:28:20;;;;;;;;;;;;;;;20.96;42.34;96043.25;10440799;28;1963;-50
2021/12/30 14:33:28;;;;;;;;;;;;;;;21.04;42.28;96049.88;10440903;28;1809;-49
2021/12/30 14:38:29;;;;;;;;;;;;;;;21.06;42.20;96048.53;10441725;28;1663;-50
2021/12/30 14:43:29;;;;;;;;;;;;;;;21.06;41.98;96056.44;10437269;28;1935;-45
2021/12/30 14:48:32;;;;;;;;;;;;;;;21.10;41.83;96048.78;10442992;28;1973;-45
2021/12/30 14:53:33;;;;;;;;;;;;;;;21.14;41.71;96049.84;10441573;28;1872;-45
2021/12/30 14:58:34;;;;;;;;;;;;;;;21.17;40.73;96051.91;10440541;28;1825;-50
2021/12/30 15:03:34;;;;;;;;;;;;;;;21.17;41.26;96059.81;10442327;28;1766;-44
2021/12/30 15:08:35;;;;;;;;;;;;;;;21.25;41.68;96061.91;10440151;28;1903;-48
2021/12/30 15:13:35;;;;;;;;;;;;;;;21.28;41.80;96069.28;10439149;28;1919;-50
2021/12/30 15:18:36;;;;;;;;;;;;;;;21.31;41.35;96067.97;10440894;28;1828;-50
2021/12/30 15:23:37;;;;;;;;;;;;;;;21.32;40.89;96077.44;10439302;28;1825;-50
2021/12/30 15:28:38;;;;;;;;;;;;;;;21.32;40.99;96082.69;10440619;28;1910;-50
2021/12/30 15:33:39;;;;;;;;;;;;;;;21.29;40.92;96083.25;10429822;28;1793;-47
2021/12/30 15:38:39;;;;;;;;;;;;;;;21.29;40.95;96088.53;10439732;28;1812;-46
2021/12/30 15:43:40;;;;;;;;;;;;;;;21.28;40.87;96086.94;10435624;28;1956;-51
2021/12/30 15:48:41;;;;;;;;;;;;;;;21.25;41.08;96083.00;10439812;28;2008;-51
2021/12/30 15:53:42;;;;;;;;;;;;;;;21.27;40.75;96095.94;10438875;28;1996;-50
2021/12/30 15:58:43;;;;;;;;;;;;;;;21.29;40.68;96104.34;10435435;28;1934;-53
2021/12/30 16:03:43;;;;;;;;;;;;;;;21.29;40.46;96099.06;10438792;28;1821;-53
2021/12/30 16:08:44;;;;;;;;;;;;;;;21.28;40.50;96086.94;10430402;28;1971;-49
2021/12/30 16:13:44;;;;;;;;;;;;;;;21.24;40.69;96085.91;10436873;28;1751;-49
2021/12/30 16:18:45;;;;;;;;;;;;;;;21.19;40.72;96093.81;10434745;28;1931;-52
2021/12/30 16:23:46;;;;;;;;;;;;;;;21.19;40.37;96099.09;10426130;28;1822;-50
2021/12/30 16:28:47;;;;;;;;;;;;;;;21.25;40.23;96098.00;10428721;28;1967;-47
2021/12/30 16:33:47;;;;;;;;;;;;;;;21.32;40.82;96104.59;10437327;28;2024;-45
2021/12/30 16:38:48;;;;;;;;;;;;;;;21.33;40.88;96121.22;10433550;28;1873;-45
2021/12/30 16:43:48;;;;;;;;;;;;;;;21.35;40.67;96108.53;10439949;28;1802;-50
2021/12/30 16:48:50;;;;;;;;;;;;;;;21.40;40.60;96100.59;10433229;28;1906;-47
2021/12/30 16:53:50;;;;;;;;;;;;;;;21.41;40.67;96104.84;10444167;28;1856;-45
2021/12/30 16:58:51;;;;;;;;;;;;;;;21.42;40.66;96101.13;10445869;28;1820;-55
2021/12/30 17:03:52;;;;;;;;;;;;;;;21.46;40.51;96110.88;10440554;28;1776;-47
2021/12/30 17:08:52;;;;;;;;;;;;;;;21.48;40.17;96119.28;10442008;28;1906;-48
2021/12/30 17:13:53;;;;;;;;;;;;;;;21.51;40.39;96113.50;10442497;28;1807;-47
2021/12/30 17:18:54;;;;;;;;;;;;;;;21.53;40.51;96106.09;10441831;28;1779;-44
2021/12/30 17:23:54;;;;;;;;;;;;;;;21.54;40.15;96112.94;10443886;28;1882;-46
2021/12/30 17:28:56;;;;;;;;;;;;;;;21.53;40.56;96114.00;10441420;28;1906;-48
2021/12/30 17:33:58;;;;;;;;;;;;;;;21.54;40.29;96110.28;10442225;28;1904;-47
2021/12/30 17:39:00;;;;;;;;;;;;;;;21.55;40.20;96116.38;10442603;28;1852;-45
2021/12/30 17:44:00;;;;;;;;;;;;;;;21.57;39.99;96117.69;10435247;28;2012;-46
2021/12/30 17:49:02;;;;;;;;;;;;;;;21.57;40.47;96122.97;10443716;28;1968;-45
2021/12/30 17:54:03;;;;;;;;;;;;;;;21.56;40.07;96117.94;10424605;28;1882;-46
2021/12/30 17:59:04;;;;;;;;;;;;;;;21.52;40.01;96125.59;10443268;28;1838;-51
2021/12/30 18:04:05;;;;;;;;;;;;;;;21.52;40.00;96145.91;10442978;28;1820;-47
2021/12/30 18:09:05;;;;;;;;;;;;;;;21.49;39.95;96149.91;10442625;28;1936;-49
2021/12/30 18:14:06;;;;;;;;;;;;;;;21.49;40.03;96151.75;10443044;28;1727;-45
2021/12/30 18:19:07;;;;;;;;;;;;;;;21.45;39.77;96162.03;10442390;28;1909;-48
2021/12/30 18:24:07;;;;;;;;;;;;;;;21.47;39.68;96165.22;10434079;28;1828;-45
2021/12/30 18:29:08;;;;;;;;;;;;;;;21.48;39.93;96163.34;10437841;28;1999;-45
2021/12/30 18:34:11;;;;;;;;;;;;;;;21.48;39.70;96161.50;10434452;28;1892;-46
2021/12/30 18:39:12;;;;;;;;;;;;;;;21.46;39.91;96170.72;10438538;28;1809;-52
2021/12/30 18:44:13;;;;;;;;;;;;;;;21.45;39.56;96175.22;10439206;28;1836;-48
2021/12/30 18:49:13;;;;;;;;;;;;;;;21.48;39.55;96176.53;10441223;28;1966;-48
2021/12/30 18:54:14;;;;;;;;;;;;;;;21.45;39.90;96174.44;10434643;28;1847;-47
2021/12/30 18:59:15;;;;;;;;;;;;;;;21.46;39.44;96181.28;10432914;28;1826;-51
2021/12/30 19:04:16;;;;;;;;;;;;;;;21.43;39.87;96193.16;10437103;28;1781;-51
2021/12/30 19:09:19;;;;;;;;;;;;;;;21.48;39.42;96187.88;10438034;28;1894;-48
2021/12/30 19:14:20;;;;;;;;;;;;;;;21.44;39.41;96189.47;10433381;28;2230;-49
2021/12/30 19:19:20;;;;;;;;;;;;;;;21.44;39.76;96183.41;10438215;28;1881;-48
2021/12/30 19:24:21;;;;;;;;;;;;;;;21.44;39.43;96186.03;10436007;28;1825;-49
2021/12/30 19:29:22;;;;;;;;;;;;;;;21.43;39.64;96189.75;10421695;28;1910;-50
2021/12/30 19:34:24;;;;;;;;;;;;;;;21.42;39.50;96183.66;10438270;28;1847;-44
2021/12/30 19:39:25;;;;;;;;;;;;;;;21.43;39.62;96184.47;10440017;28;1872;-46
2021/12/30 19:44:25;;;;;;;;;;;;;;;21.39;39.42;96178.91;10439619;28;1796;-46
2021/12/30 19:49:26;;;;;;;;;;;;;;;21.41;39.61;96183.94;10436769;28;1922;-48
2021/12/30 19:54:26;;;;;;;;;;;;;;;21.42;39.44;96191.59;10436828;28;1877;-46
2021/12/30 19:59:27;;;;;;;;;;;;;;;21.43;39.51;96195.03;10440036;28;1795;-45
2021/12/30 20:04:28;;;;;;;;;;;;;;;21.43;39.57;96205.56;10437579;28;1812;-48
2021/12/30 20:09:28;;;;;;;;;;;;;;;21.43;39.36;96205.56;10439806;28;1914;-48
2021/12/30 20:14:30;;;;;;;;;;;;;;;21.43;39.73;96208.97;10436658;28;1863;-52
2021/12/30 20:19:31;;;;;;;;;;;;;;;21.46;39.44;96216.38;10438236;28;1843;-51
2021/12/30 20:24:32;;;;;;;;;;;;;;;21.42;39.66;96225.88;10436865;28;1829;-51
2021/12/30 20:29:33;;;;;;;;;;;;;;;21.45;39.78;96240.38;10444110;28;1902;-48
2021/12/30 20:34:35;;;;;;;;;;;;;;;21.44;39.70;96234.31;10444782;28;1774;-50
2021/12/30 20:39:36;;;;;;;;;;;;;;;21.43;39.69;96245.13;10447947;28;1909;-49
2021/12/30 20:44:36;;;;;;;;;;;;;;;21.46;39.77;96248.00;10442285;28;1872;-50
2021/12/30 20:49:37;;;;;;;;;;;;;;;21.47;39.70;96252.25;10446298;28;1915;-47
2021/12/30 20:54:38;;;;;;;;;;;;;;;21.47;39.78;96243.53;10440868;28;1816;-48
2021/12/30 20:59:39;;;;;;;;;;;;;;;21.49;40.08;96246.69;10445625;28;1893;-45
2021/12/30 21:04:39;;;;;;;;;;;;;;;21.50;41.11;96258.81;10441885;28;1749;-45
2021/12/30 21:09:41;;;;;;;;;;;;;;;21.53;41.68;96253.81;10445464;28;1887;-45
2021/12/30 21:14:42;;;;;;;;;;;;;;;21.55;42.02;96253.53;10442400;28;1917;-45
2021/12/30 21:19:43;;;;;;;;;;;;;;;21.57;42.32;96259.34;10438907;28;1870;-45
2021/12/30 21:24:43;;;;;;;;;;;;;;;21.55;42.33;96256.19;10437986;28;1831;-45
2021/12/30 21:29:44;;;;;;;;;;;;;;;21.56;42.50;96258.53;10445639;28;1963;-47
2021/12/30 21:34:45;;;;;;;;;;;;;;;21.56;42.45;96269.09;10423826;28;1867;-46
2021/12/30 21:39:46;;;;;;;;;;;;;;;21.52;42.59;96275.97;10442892;28;1850;-49
2021/12/30 21:44:46;;;;;;;;;;;;;;;21.50;42.62;96277.28;10438062;28;1908;-47
2021/12/30 21:49:47;;;;;;;;;;;;;;;21.50;42.23;96278.06;10436336;28;1979;-50
2021/12/30 21:54:48;;;;;;;;;;;;;;;21.45;42.40;96283.34;10437230;28;1844;-49
2021/12/30 21:59:48;;;;;;;;;;;;;;;21.42;42.63;96283.88;10444200;28;1776;-51
2021/12/30 22:04:49;;;;;;;;;;;;;;;21.42;42.46;96291.00;10435518;28;1901;-48
2021/12/30 22:09:50;;;;;;;;;;;;;;;21.42;42.51;96297.06;10439632;28;1906;-48
2021/12/30 22:14:51;;;;;;;;;;;;;;;21.40;42.67;96301.03;10435359;28;2143;-47
2021/12/30 22:19:51;;;;;;;;;;;;;;;21.42;42.49;96306.81;10437172;28;1875;-48
2021/12/30 22:24:52;;;;;;;;;;;;;;;21.43;42.42;96311.06;10434218;28;1786;-46
2021/12/30 22:29:53;;;;;;;;;;;;;;;21.42;42.52;96314.75;10439881;28;1910;-47
2021/12/30 22:34:54;;;;;;;;;;;;;;;21.41;42.33;96306.03;10435771;28;1848;-49
2021/12/30 22:39:54;;;;;;;;;;;;;;;21.42;42.30;96312.09;10435615;28;1889;-49
2021/12/30 22:44:55;;;;;;;;;;;;;;;21.42;42.28;96310.25;10439761;28;2237;-48
2021/12/30 22:49:56;;;;;;;;;;;;;;;21.41;42.31;96315.81;10437534;28;1903;-46
2021/12/30 22:54:57;;;;;;;;;;;;;;;21.43;41.90;96313.69;10441386;28;1889;-46
2021/12/30 22:59:57;;;;;;;;;;;;;;;21.43;41.88;96322.38;10440956;28;1838;-48
2021/12/30 23:04:58;;;;;;;;;;;;;;;21.43;41.90;96318.97;10432556;28;1911;-45
2021/12/30 23:09:59;;;;;;;;;;;;;;;21.43;41.94;96324.25;10440828;28;1906;-46
2021/12/30 23:15:00;;;;;;;;;;;;;;;21.46;41.69;96331.63;10429743;28;1951;-45
2021/12/30 23:20:02;;;;;;;;;;;;;;;21.43;41.67;96335.56;10436106;28;1861;-46
2021/12/30 23:25:03;;;;;;;;;;;;;;;21.44;41.61;96328.47;10440341;28;1914;-47
2021/12/30 23:30:04;;;;;;;;;;;;;;;21.47;41.26;96322.66;10439769;28;2545;-45
2021/12/30 23:35:05;;;;;;;;;;;;;;;21.45;41.70;96330.06;10439254;28;1822;-47
2021/12/30 23:40:06;;;;;;;;;;;;;;;21.45;41.35;96325.53;10438185;28;1858;-47
2021/12/30 23:45:07;;;;;;;;;;;;;;;21.45;41.30;96328.19;10435121;28;1810;-46
2021/12/30 23:50:07;;;;;;;;;;;;;;;21.46;41.13;96332.41;10435682;28;1794;-46
2021/12/30 23:55:08;;;;;;;;;;;;;;;21.46;41.28;96342.16;10438836;28;1829;-46
